Time;durP1;ratioP1;P1;durP2;ratioP2;P2;SDS_P1;SDS_P2;PMS_P1;PMS_P2;Temp;Humidity;BMP_temperature;BMP_pressure;BME280_temperature;BME280_humidity;BME280_pressure;Samples;Min_cycle;Max_cycle;Signal;HPM_P1;HPM_P2
2022/04/12 00:00:00;;;;;;;4.18;2.25;;;10.90;90.60;;;;;;5029257;28;20044;-61
2022/04/12 00:02:27;;;;;;;6.82;2.40;;;10.90;90.40;;;;;;5029391;28;20068;-63
2022/04/12 00:04:53;;;;;;;8.95;2.88;;;10.90;90.50;;;;;;5029326;28;20183;-62
2022/04/12 00:07:19;;;;;;;5.75;2.17;;;10.90;90.50;;;;;;5029646;28;20056;-60
2022/04/12 00:09:44;;;;;;;5.70;2.67;;;10.90;90.60;;;;;;5029098;28;20025;-60
2022/04/12 00:12:10;;;;;;;6.38;2.47;;;10.90;90.50;;;;;;5028786;28;20084;-60
2022/04/12 00:14:36;;;;;;;8.15;2.35;;;10.90;90.60;;;;;;5029241;28;20030;-60
2022/04/12 00:19:46;;;;;;;5.25;2.03;;;10.90;90.80;;;;;;5029148;28;20032;-60
2022/04/12 00:22:12;;;;;;;4.13;2.30;;;10.80;90.90;;;;;;5028671;28;20128;-60
2022/04/12 00:24:37;;;;;;;5.72;2.75;;;10.90;91.00;;;;;;5029222;28;20750;-61
2022/04/12 00:27:03;;;;;;;12.50;3.25;;;10.80;91.30;;;;;;5029188;28;20033;-62
2022/04/12 00:29:29;;;;;;;6.05;1.80;;;10.80;91.00;;;;;;5028006;28;20099;-60
2022/04/12 00:31:54;;;;;;;5.88;2.67;;;10.80;91.30;;;;;;5028588;28;20128;-62
2022/04/12 00:34:20;;;;;;;7.25;2.53;;;10.80;91.40;;;;;;5029261;28;20038;-61
2022/04/12 00:36:46;;;;;;;6.75;2.65;;;10.80;91.20;;;;;;5028520;28;20097;-63
2022/04/12 00:39:11;;;;;;;4.95;2.42;;;10.80;91.80;;;;;;5029020;28;20037;-61
2022/04/12 00:41:37;;;;;;;7.63;2.25;;;10.70;91.70;;;;;;5027748;28;20025;-62
2022/04/12 00:44:03;;;;;;;8.48;2.10;;;10.80;91.70;;;;;;5029053;28;20112;-60
2022/04/12 00:46:29;;;;;;;7.28;2.17;;;10.70;91.90;;;;;;5028825;28;20911;-60
2022/04/12 00:48:54;;;;;;;8.90;2.47;;;10.60;92.00;;;;;;5028824;28;20025;-61
2022/04/12 00:51:20;;;;;;;6.90;2.50;;;10.70;92.00;;;;;;5028049;28;20112;-60
2022/04/12 00:53:46;;;;;;;4.03;2.22;;;10.70;92.20;;;;;;5028435;28;20485;-60
2022/04/12 00:56:12;;;;;;;4.53;2.35;;;10.60;92.20;;;;;;5028475;28;20470;-61
2022/04/12 00:58:38;;;;;;;3.70;2.00;;;10.70;92.20;;;;;;5028456;28;20041;-62
2022/04/12 01:01:04;;;;;;;8.10;2.45;;;10.60;92.80;;;;;;5027726;28;20030;-60
2022/04/12 01:03:30;;;;;;;7.75;2.92;;;10.50;92.70;;;;;;5028045;28;20079;-60
2022/04/12 01:05:57;;;;;;;5.32;2.22;;;10.50;92.90;;;;;;5028479;28;20087;-59
2022/04/12 01:08:23;;;;;;;3.85;2.05;;;10.40;92.90;;;;;;5028604;28;20033;-61
2022/04/12 01:10:49;;;;;;;4.15;2.15;;;10.40;93.10;;;;;;5027156;28;20038;-60
2022/04/12 01:13:15;;;;;;;4.53;2.42;;;10.40;93.20;;;;;;5028237;28;20037;-61
2022/04/12 01:15:42;;;;;;;5.40;2.20;;;10.40;93.30;;;;;;5028084;28;20033;-60
2022/04/12 01:18:10;;;;;;;3.65;1.63;;;10.30;93.40;;;;;;5028228;28;20475;-62
2022/04/12 01:20:35;;;;;;;6.75;2.15;;;10.30;93.50;;;;;;5027373;28;20033;-60
2022/04/12 01:23:09;;;;;;;5.38;2.40;;;10.40;93.50;;;;;;5027957;28;20153;-61
2022/04/12 01:25:37;;;;;;;3.80;1.77;;;10.30;93.60;;;;;;5027761;28;20038;-60
2022/04/12 01:28:03;;;;;;;4.82;2.10;;;10.40;93.70;;;;;;5027885;28;20497;-60
2022/04/12 01:30:28;;;;;;;5.47;2.13;;;10.30;93.90;;;;;;5025687;28;20117;-60
2022/04/12 01:32:54;;;;;;;5.10;2.42;;;10.20;94.00;;;;;;5028250;28;20132;-60
2022/04/12 01:35:20;;;;;;;3.90;2.30;;;10.30;94.20;;;;;;5027749;28;20133;-62
2022/04/12 01:37:45;;;;;;;5.95;2.35;;;10.20;94.30;;;;;;5027118;28;20037;-60
2022/04/12 01:40:11;;;;;;;4.47;2.38;;;10.20;94.40;;;;;;5026987;28;20539;-59
2022/04/12 01:42:38;;;;;;;4.20;1.92;;;10.20;94.40;;;;;;5027555;28;20509;-62
2022/04/12 01:45:04;;;;;;;7.43;2.10;;;10.20;94.50;;;;;;5027837;28;20060;-60
2022/04/12 01:47:30;;;;;;;6.70;1.83;;;10.00;94.90;;;;;;5027629;28;20033;-60
2022/04/12 01:49:56;;;;;;;5.82;2.25;;;10.10;94.80;;;;;;5026868;28;20033;-60
2022/04/12 01:52:22;;;;;;;9.02;2.53;;;10.10;94.90;;;;;;5027990;28;20405;-60
2022/04/12 01:54:48;;;;;;;4.95;1.92;;;10.00;95.00;;;;;;5027388;28;20042;-60
2022/04/12 01:57:13;;;;;;;4.18;1.90;;;10.00;95.20;;;;;;5027574;28;20036;-60
2022/04/12 01:59:39;;;;;;;8.82;2.20;;;10.00;95.20;;;;;;5027264;28;20184;-60
2022/04/12 02:02:05;;;;;;;4.35;2.08;;;10.00;95.40;;;;;;5027034;28;20763;-60
2022/04/12 02:04:30;;;;;;;6.05;2.60;;;10.00;95.40;;;;;;5026502;28;20099;-60
2022/04/12 02:06:56;;;;;;;4.05;1.92;;;10.00;95.40;;;;;;5027281;28;20022;-61
2022/04/12 02:09:21;;;;;;;5.05;2.17;;;9.90;95.50;;;;;;5027467;28;20034;-60
2022/04/12 02:11:47;;;;;;;6.57;1.95;;;9.90;95.50;;;;;;5026854;28;20041;-60
2022/04/12 02:14:12;;;;;;;4.18;2.10;;;9.90;95.70;;;;;;5027541;28;20041;-60
2022/04/12 02:16:38;;;;;;;5.13;1.50;;;9.90;95.90;;;;;;5026796;28;20506;-61
2022/04/12 02:19:03;;;;;;;7.15;2.30;;;9.80;96.00;;;;;;5027404;28;20766;-60
2022/04/12 02:21:29;;;;;;;7.07;2.45;;;9.80;96.10;;;;;;5025057;28;20514;-63
2022/04/12 02:23:55;;;;;;;4.22;2.10;;;9.80;96.10;;;;;;5027326;28;20033;-62
2022/04/12 02:26:21;;;;;;;4.03;2.10;;;9.80;96.00;;;;;;5027438;28;20033;-60
2022/04/12 02:28:46;;;;;;;6.40;2.17;;;9.80;96.20;;;;;;5027057;28;20370;-60
2022/04/12 02:31:12;;;;;;;4.85;2.08;;;9.80;96.20;;;;;;5026491;28;20022;-60
2022/04/12 02:33:37;;;;;;;6.53;2.15;;;9.80;96.20;;;;;;5026724;28;20037;-61
2022/04/12 02:36:03;;;;;;;4.45;2.08;;;9.80;96.40;;;;;;5027226;28;20037;-60
2022/04/12 02:38:29;;;;;;;4.75;2.40;;;9.70;96.50;;;;;;5026790;28;20045;-60
2022/04/12 02:40:54;;;;;;;4.90;2.58;;;9.70;96.60;;;;;;5026992;28;20026;-60
2022/04/12 02:43:20;;;;;;;5.60;1.95;;;9.70;96.60;;;;;;5028167;28;20113;-60
2022/04/12 02:45:46;;;;;;;5.05;2.00;;;9.60;96.80;;;;;;5026929;28;20034;-60
2022/04/12 02:48:12;;;;;;;8.25;2.17;;;9.60;97.30;;;;;;5027528;28;20072;-60
2022/04/12 02:50:39;;;;;;;7.28;2.17;;;9.50;97.60;;;;;;5024786;28;20126;-61
2022/04/12 02:53:04;;;;;;;4.28;2.20;;;9.50;97.80;;;;;;5027386;28;20025;-60
2022/04/12 02:55:30;;;;;;;6.50;2.20;;;9.50;97.50;;;;;;5026959;28;20047;-60
2022/04/12 02:57:55;;;;;;;4.05;2.13;;;9.50;97.50;;;;;;5027824;28;20037;-60
2022/04/12 03:00:21;;;;;;;6.28;2.70;;;9.50;97.60;;;;;;5026915;28;20065;-60
2022/04/12 03:02:47;;;;;;;7.55;2.17;;;9.60;97.50;;;;;;5023922;28;20041;-62
2022/04/12 03:05:12;;;;;;;5.78;2.47;;;9.50;97.50;;;;;;5027111;28;20417;-61
2022/04/12 03:07:38;;;;;;;6.35;2.47;;;9.50;98.00;;;;;;5027198;28;20083;-61
2022/04/12 03:10:04;;;;;;;6.97;2.20;;;9.50;98.10;;;;;;5026687;28;20044;-62
2022/04/12 03:12:30;;;;;;;3.72;2.05;;;9.40;98.10;;;;;;5026623;28;20033;-60
2022/04/12 03:14:56;;;;;;;6.60;2.50;;;9.50;98.10;;;;;;5027465;28;20033;-60
2022/04/12 03:17:21;;;;;;;9.15;2.03;;;9.40;98.10;;;;;;5031714;28;20041;-60
2022/04/12 03:19:47;;;;;;;5.93;2.58;;;9.50;98.10;;;;;;5030314;28;20561;-60
2022/04/12 03:22:13;;;;;;;7.43;2.40;;;9.50;98.20;;;;;;5030524;28;20532;-60
2022/04/12 03:24:38;;;;;;;8.40;2.15;;;9.50;98.20;;;;;;5030765;28;20490;-62
2022/04/12 03:27:04;;;;;;;6.43;2.42;;;9.40;98.20;;;;;;5030167;28;20053;-60
2022/04/12 03:29:30;;;;;;;7.28;2.75;;;9.40;98.30;;;;;;5028661;28;20048;-60
2022/04/12 03:31:56;;;;;;;8.15;2.60;;;9.40;98.50;;;;;;5028350;28;20029;-60
2022/04/12 03:34:22;;;;;;;8.10;2.08;;;9.40;98.60;;;;;;5030840;28;20095;-59
2022/04/12 03:36:47;;;;;;;7.18;2.30;;;9.40;98.60;;;;;;5029382;28;20191;-61
2022/04/12 03:39:17;;;;;;;3.13;1.60;;;9.40;98.60;;;;;;5030074;28;20682;-60
2022/04/12 03:41:45;;;;;;;4.32;2.08;;;9.40;98.60;;;;;;5029370;28;20128;-59
2022/04/12 03:44:11;;;;;;;6.18;2.83;;;9.40;98.70;;;;;;5030642;28;20033;-59
2022/04/12 03:46:37;;;;;;;5.40;2.58;;;9.30;98.90;;;;;;5029832;28;20120;-60
2022/04/12 03:49:02;;;;;;;7.07;2.40;;;9.40;98.80;;;;;;5030330;28;20041;-60
2022/04/12 03:51:28;;;;;;;7.75;2.35;;;9.40;98.90;;;;;;5029291;28;20125;-60
2022/04/12 03:53:53;;;;;;;5.25;2.80;;;9.30;99.20;;;;;;5029782;28;20064;-60
2022/04/12 03:56:19;;;;;;;6.63;2.55;;;9.30;99.10;;;;;;5029639;28;20052;-61
2022/04/12 03:58:45;;;;;;;6.88;2.05;;;9.30;99.20;;;;;;5028322;28;20091;-60
2022/04/12 04:01:11;;;;;;;6.70;2.22;;;9.30;99.10;;;;;;5029056;28;20041;-60
2022/04/12 04:03:36;;;;;;;6.22;2.40;;;9.30;99.20;;;;;;5029815;28;20557;-60
2022/04/12 04:06:05;;;;;;;8.77;2.30;;;9.30;99.40;;;;;;5029312;28;20057;-59
2022/04/12 04:08:31;;;;;;;5.78;2.33;;;9.30;99.50;;;;;;5029322;28;20125;-61
2022/04/12 04:10:57;;;;;;;5.00;2.03;;;9.40;99.30;;;;;;5028826;28;20061;-60
2022/04/12 04:13:24;;;;;;;6.15;2.33;;;9.30;99.80;;;;;;5029822;28;20057;-61
2022/04/12 04:15:50;;;;;;;7.32;2.30;;;9.30;99.70;;;;;;5028833;28;20033;-62
2022/04/12 04:18:16;;;;;;;5.05;2.50;;;9.30;99.60;;;;;;5029487;28;20520;-61
2022/04/12 04:20:42;;;;;;;3.53;1.80;;;9.40;99.50;;;;;;5027926;28;20638;-63
2022/04/12 04:23:09;;;;;;;6.68;2.25;;;9.40;99.50;;;;;;5028864;28;20497;-60
2022/04/12 04:25:35;;;;;;;8.10;2.55;;;9.40;99.50;;;;;;5028861;28;20040;-63
2022/04/12 04:28:01;;;;;;;7.57;2.30;;;9.40;99.70;;;;;;5029129;28;20037;-60
2022/04/12 04:30:26;;;;;;;5.45;2.53;;;9.40;99.90;;;;;;5027319;28;20052;-60
2022/04/12 04:32:52;;;;;;;4.53;2.00;;;9.30;99.90;;;;;;5027834;28;20072;-60
2022/04/12 04:35:18;;;;;;;7.85;2.30;;;9.30;99.90;;;;;;5028887;28;20092;-59
2022/04/12 04:37:48;;;;;;;6.40;2.80;;;9.30;99.90;;;;;;5028216;28;20095;-61
2022/04/12 04:40:18;;;;;;;6.32;2.88;;;9.20;99.90;;;;;;5027874;28;20045;-61
2022/04/12 04:42:45;;;;;;;6.20;2.20;;;9.20;99.90;;;;;;5028202;28;20033;-61
2022/04/12 04:45:11;;;;;;;7.82;2.58;;;9.20;99.90;;;;;;5028824;28;20128;-60
2022/04/12 04:47:49;;;;;;;7.53;2.40;;;9.20;99.90;;;;;;5028187;28;20037;-60
2022/04/12 04:50:15;;;;;;;7.35;2.40;;;9.20;99.90;;;;;;5026476;28;20045;-59
2022/04/12 04:52:41;;;;;;;4.22;2.47;;;9.20;99.90;;;;;;5016270;28;20413;-60
2022/04/12 04:55:07;;;;;;;4.85;2.28;;;9.20;99.90;;;;;;5022511;28;20670;-62
2022/04/12 04:57:36;;;;;;;6.15;2.20;;;9.20;99.90;;;;;;5025353;28;20526;-61
2022/04/12 05:00:07;;;;;;;8.77;2.60;;;9.10;99.90;;;;;;5025531;28;20689;-61
2022/04/12 05:02:33;;;;;;;7.63;2.25;;;9.00;99.90;;;;;;5026026;28;20037;-61
2022/04/12 05:04:59;;;;;;;5.85;2.17;;;9.00;99.90;;;;;;5025183;28;20166;-60
2022/04/12 05:07:27;;;;;;;7.25;2.45;;;9.00;99.90;;;;;;5024873;28;20041;-61
2022/04/12 05:09:53;;;;;;;11.80;2.30;;;9.10;99.90;;;;;;5022548;28;20037;-61
2022/04/12 05:12:19;;;;;;;6.70;2.95;;;9.00;99.90;;;;;;5025701;28;20064;-61
2022/04/12 05:14:44;;;;;;;8.60;2.63;;;9.00;99.90;;;;;;5025133;28;20030;-60
2022/04/12 05:17:10;;;;;;;5.95;2.30;;;9.00;99.90;;;;;;5024741;28;20056;-61
2022/04/12 05:19:36;;;;;;;9.18;2.47;;;9.00;99.90;;;;;;5025268;28;20095;-60
2022/04/12 05:22:01;;;;;;;8.15;2.85;;;9.00;99.90;;;;;;5022028;28;20385;-61
2022/04/12 05:24:27;;;;;;;11.27;2.45;;;9.10;99.90;;;;;;5025097;28;20060;-61
2022/04/12 05:26:52;;;;;;;4.88;2.10;;;9.10;99.90;;;;;;5026236;28;20136;-60
2022/04/12 05:29:18;;;;;;;9.68;2.97;;;9.10;99.90;;;;;;5025709;28;20094;-61
2022/04/12 05:31:43;;;;;;;4.07;2.17;;;9.00;99.90;;;;;;5023334;28;20037;-61
2022/04/12 05:34:09;;;;;;;5.78;2.55;;;9.00;99.90;;;;;;5025060;28;20048;-63
2022/04/12 05:36:34;;;;;;;3.97;2.10;;;9.00;99.90;;;;;;5023094;28;20036;-60
2022/04/12 05:39:00;;;;;;;7.93;2.63;;;9.10;99.90;;;;;;5023908;28;20116;-60
2022/04/12 05:41:25;;;;;;;6.30;2.20;;;9.10;99.90;;;;;;5024660;28;20062;-60
2022/04/12 05:43:51;;;;;;;9.50;2.50;;;9.10;99.90;;;;;;5024984;28;20107;-61
2022/04/12 05:46:17;;;;;;;7.05;2.63;;;9.20;99.90;;;;;;5024985;28;20041;-62
2022/04/12 05:48:42;;;;;;;8.43;2.40;;;9.20;99.90;;;;;;5024354;28;20037;-63
2022/04/12 05:51:08;;;;;;;9.07;3.20;;;9.40;99.90;;;;;;5024243;28;20041;-61
2022/04/12 05:53:34;;;;;;;23.75;2.42;;;9.70;99.90;;;;;;5023183;28;20033;-60
2022/04/12 05:56:00;;;;;;;8.10;2.58;;;10.10;99.90;;;;;;5024469;28;20401;-60
2022/04/12 05:58:25;;;;;;;7.45;2.60;;;10.40;99.90;;;;;;5024929;28;20090;-61
2022/04/12 06:00:51;;;;;;;5.10;2.08;;;11.30;99.40;;;;;;5023397;28;20047;-61
2022/04/12 06:03:16;;;;;;;5.22;2.30;;;12.10;97.60;;;;;;5024851;28;20037;-59
2022/04/12 06:05:42;;;;;;;7.18;2.38;;;13.00;95.80;;;;;;5024059;28;20476;-61
2022/04/12 06:08:08;;;;;;;7.93;2.25;;;13.70;93.50;;;;;;5023127;28;20048;-61
2022/04/12 06:10:33;;;;;;;6.18;2.42;;;14.30;92.20;;;;;;5023183;28;20132;-60
2022/04/12 06:13:00;;;;;;;5.75;2.63;;;14.60;91.00;;;;;;5024450;28;20109;-60
2022/04/12 06:15:26;;;;;;;5.78;2.40;;;14.90;90.00;;;;;;5024847;28;20048;-61
2022/04/12 06:17:51;;;;;;;5.63;2.13;;;15.30;86.80;;;;;;5022997;28;20037;-60
2022/04/12 06:20:18;;;;;;;6.30;2.25;;;15.80;84.90;;;;;;5024107;28;20045;-60
2022/04/12 06:22:44;;;;;;;4.30;2.40;;;15.90;84.20;;;;;;5023983;28;20497;-60
2022/04/12 06:25:11;;;;;;;5.55;2.08;;;16.10;85.10;;;;;;5023662;28;20048;-61
2022/04/12 06:27:39;;;;;;;6.70;2.45;;;17.00;80.60;;;;;;5025200;28;20057;-62
2022/04/12 06:30:06;;;;;;;5.60;2.65;;;17.20;79.20;;;;;;5025220;28;20034;-61
2022/04/12 06:32:33;;;;;;;5.65;2.00;;;17.40;78.30;;;;;;5023929;28;20497;-60
2022/04/12 06:34:58;;;;;;;7.95;2.53;;;17.80;75.30;;;;;;5025062;28;20386;-60
2022/04/12 06:37:25;;;;;;;6.40;2.47;;;17.90;75.40;;;;;;5023361;28;20064;-60
2022/04/12 06:39:51;;;;;;;4.22;2.50;;;17.80;74.20;;;;;;5022453;28;20033;-62
2022/04/12 06:42:17;;;;;;;5.25;1.98;;;18.40;72.70;;;;;;5024693;28;20481;-60
2022/04/12 06:44:42;;;;;;;4.88;2.05;;;18.20;71.70;;;;;;5023876;28;20030;-60
2022/04/12 06:47:08;;;;;;;5.35;2.38;;;18.10;71.90;;;;;;5023924;28;20571;-62
2022/04/12 06:49:34;;;;;;;4.43;1.60;;;17.90;72.50;;;;;;5025310;28;20137;-62
2022/04/12 06:51:59;;;;;;;4.72;2.20;;;18.20;71.40;;;;;;5027761;28;20551;-60
2022/04/12 06:54:26;;;;;;;6.25;2.15;;;18.10;72.30;;;;;;5027792;28;20033;-60
2022/04/12 06:56:51;;;;;;;5.93;2.17;;;18.30;71.20;;;;;;5027376;28;20037;-60
2022/04/12 06:59:17;;;;;;;4.72;1.98;;;18.10;70.90;;;;;;5031898;28;20600;-61
2022/04/12 07:01:42;;;;;;;4.18;2.20;;;17.60;71.60;;;;;;5026321;28;20029;-60
2022/04/12 07:04:09;;;;;;;6.18;2.15;;;17.30;72.50;;;;;;5028127;28;20033;-60
2022/04/12 07:06:35;;;;;;;5.40;2.13;;;17.00;73.90;;;;;;5024260;28;20088;-61
2022/04/12 07:09:01;;;;;;;4.63;2.40;;;16.80;74.00;;;;;;5027578;28;20470;-61
2022/04/12 07:11:26;;;;;;;4.72;1.95;;;16.40;76.20;;;;;;5024681;28;20029;-60
2022/04/12 07:13:52;;;;;;;4.32;2.05;;;16.30;77.50;;;;;;5026857;28;20053;-60
2022/04/12 07:16:17;;;;;;;6.03;2.28;;;16.10;78.20;;;;;;5027430;28;20052;-62
2022/04/12 07:18:43;;;;;;;4.57;2.03;;;16.00;77.80;;;;;;5027589;28;20187;-60
2022/04/12 07:21:09;;;;;;;5.68;2.05;;;15.80;79.50;;;;;;5027046;28;20052;-61
2022/04/12 07:23:37;;;;;;;6.88;2.20;;;15.60;81.10;;;;;;5026431;28;20033;-61
2022/04/12 07:26:04;;;;;;;9.02;2.50;;;15.60;81.30;;;;;;5027954;28;20029;-60
2022/04/12 07:28:29;;;;;;;6.47;2.17;;;15.50;80.60;;;;;;5027445;28;20489;-62
2022/04/12 07:30:55;;;;;;;4.25;2.05;;;15.50;81.90;;;;;;5025745;28;20040;-60
2022/04/12 07:33:20;;;;;;;4.97;2.53;;;15.50;82.40;;;;;;5027265;28;20413;-63
2022/04/12 07:35:46;;;;;;;5.85;2.53;;;15.40;82.20;;;;;;5026511;28;20037;-60
2022/04/12 07:38:12;;;;;;;4.93;2.17;;;15.40;83.20;;;;;;5026939;28;20490;-60
2022/04/12 07:40:38;;;;;;;5.43;2.38;;;15.50;82.90;;;;;;5025833;28;20071;-60
2022/04/12 07:43:03;;;;;;;7.68;2.38;;;15.50;84.00;;;;;;5027272;28;20116;-61
2022/04/12 07:45:29;;;;;;;6.25;2.00;;;15.60;82.90;;;;;;5025747;28;20128;-63
2022/04/12 07:47:54;;;;;;;4.88;2.30;;;15.70;81.80;;;;;;5026179;28;20513;-60
2022/04/12 07:50:20;;;;;;;5.30;2.47;;;15.60;84.60;;;;;;5026097;28;20037;-61
2022/04/12 07:52:47;;;;;;;5.80;2.25;;;15.80;85.60;;;;;;5025659;28;20030;-60
2022/04/12 07:55:12;;;;;;;8.38;1.95;;;15.90;82.50;;;;;;5027230;28;20053;-61
2022/04/12 07:57:38;;;;;;;5.57;2.22;;;15.80;82.30;;;;;;5028930;28;20057;-60
2022/04/12 08:00:04;;;;;;;8.20;2.30;;;15.90;82.10;;;;;;5025861;28;20033;-61
2022/04/12 08:02:30;;;;;;;7.28;2.10;;;15.80;81.90;;;;;;5025906;28;20038;-61
2022/04/12 08:04:55;;;;;;;5.57;2.10;;;15.70;82.90;;;;;;5025630;28;20402;-60
2022/04/12 08:07:21;;;;;;;5.82;3.08;;;15.70;83.50;;;;;;5026645;28;20047;-60
2022/04/12 08:09:47;;;;;;;6.75;2.47;;;15.80;83.90;;;;;;5026264;28;20493;-60
2022/04/12 08:12:12;;;;;;;5.10;2.08;;;15.80;83.20;;;;;;5026669;28;20142;-61
2022/04/12 08:14:38;;;;;;;4.95;2.13;;;15.60;84.30;;;;;;5025726;28;20044;-60
2022/04/12 08:17:04;;;;;;;4.50;2.25;;;15.70;85.00;;;;;;5028413;28;20041;-61
2022/04/12 08:19:30;;;;;;;10.73;2.15;;;15.80;84.50;;;;;;5026337;28;20504;-65
2022/04/12 08:21:55;;;;;;;5.75;2.50;;;15.90;84.10;;;;;;5024041;28;20296;-60
2022/04/12 08:24:22;;;;;;;5.32;2.10;;;16.00;85.50;;;;;;5026836;28;20791;-60
2022/04/12 08:26:48;;;;;;;6.90;2.50;;;16.10;85.00;;;;;;5024829;28;20191;-60
2022/04/12 08:29:14;;;;;;;5.57;2.30;;;16.30;84.20;;;;;;5026569;28;20115;-60
2022/04/12 08:31:41;;;;;;;4.53;1.90;;;16.30;83.90;;;;;;5027602;28;20057;-60
2022/04/12 08:34:06;;;;;;;6.60;2.10;;;16.20;85.00;;;;;;5025661;28;20030;-61
2022/04/12 08:36:32;;;;;;;6.70;2.45;;;16.20;85.30;;;;;;5025068;28;20305;-60
2022/04/12 08:38:57;;;;;;;4.80;2.22;;;16.30;84.50;;;;;;5026690;28;20140;-60
2022/04/12 08:41:26;;;;;;;6.78;2.22;;;16.40;86.70;;;;;;5025835;28;20501;-61
2022/04/12 08:43:56;;;;;;;4.72;1.88;;;16.50;84.70;;;;;;5023983;28;20037;-60
2022/04/12 08:46:25;;;;;;;6.13;2.50;;;16.60;84.90;;;;;;5023618;28;20697;-60
2022/04/12 08:48:53;;;;;;;5.30;2.03;;;16.80;85.40;;;;;;5025649;28;20544;-60
2022/04/12 08:51:18;;;;;;;7.32;2.30;;;17.00;85.30;;;;;;5023788;28;20120;-60
2022/04/12 08:53:45;;;;;;;5.75;2.20;;;17.00;86.50;;;;;;5025492;28;20128;-61
2022/04/12 08:56:12;;;;;;;4.93;2.10;;;17.20;83.90;;;;;;5026516;28;20030;-60
2022/04/12 08:58:37;;;;;;;4.07;2.15;;;17.30;84.10;;;;;;5025649;28;20034;-61
2022/04/12 09:01:03;;;;;;;3.97;2.08;;;17.40;86.10;;;;;;5025270;28;20719;-61
2022/04/12 09:03:28;;;;;;;2.95;1.88;;;17.40;83.70;;;;;;5022297;28;20040;-63
2022/04/12 09:05:54;;;;;;;3.90;2.10;;;17.50;83.80;;;;;;5023891;28;20669;-61
2022/04/12 09:08:31;;;;;;;6.72;2.17;;;17.60;83.30;;;;;;5024785;28;20086;-61
2022/04/12 09:11:01;;;;;;;7.75;2.13;;;17.70;84.40;;;;;;5023415;28;20048;-61
2022/04/12 09:13:28;;;;;;;6.18;2.20;;;17.80;85.40;;;;;;5025717;28;20453;-61
2022/04/12 09:15:53;;;;;;;4.57;2.05;;;18.00;84.50;;;;;;5025434;28;20037;-62
2022/04/12 09:18:31;;;;;;;4.82;2.05;;;18.10;81.80;;;;;;5023850;28;20618;-61
2022/04/12 09:21:13;;;;;;;7.35;2.13;;;18.20;81.70;;;;;;5022225;28;20041;-62
2022/04/12 09:23:48;;;;;;;2.85;1.60;;;18.10;82.50;;;;;;5024971;28;20040;-61
2022/04/12 09:26:25;;;;;;;4.75;1.75;;;18.10;81.20;;;;;;5025442;28;20037;-60
2022/04/12 09:28:53;;;;;;;5.13;1.85;;;18.20;81.60;;;;;;5023468;28;20068;-61
2022/04/12 09:31:19;;;;;;;8.32;2.05;;;18.40;81.50;;;;;;5022213;28;20030;-61
2022/04/12 09:33:47;;;;;;;4.10;2.13;;;18.40;81.30;;;;;;5025638;28;20426;-61
2022/04/12 09:36:12;;;;;;;5.43;1.85;;;18.40;80.90;;;;;;5023490;28;20529;-61
2022/04/12 09:38:40;;;;;;;7.38;2.05;;;18.50;80.80;;;;;;5025481;28;20047;-61
2022/04/12 09:41:24;;;;;;;4.57;2.42;;;18.60;81.00;;;;;;5025295;28;20065;-61
2022/04/12 09:44:08;;;;;;;10.60;2.83;;;18.70;81.50;;;;;;5024683;28;20566;-61
2022/04/12 09:46:37;;;;;;;4.63;2.28;;;18.70;81.20;;;;;;5023116;28;20475;-60
2022/04/12 09:49:04;;;;;;;4.35;2.30;;;18.70;83.20;;;;;;5026266;28;20044;-61
2022/04/12 09:51:31;;;;;;;5.93;2.63;;;18.60;81.60;;;;;;5023692;28;20053;-61
2022/04/12 09:53:56;;;;;;;5.18;2.00;;;18.60;81.70;;;;;;5025547;28;20080;-61
2022/04/12 09:56:24;;;;;;;4.10;2.10;;;18.60;83.50;;;;;;5025363;28;20053;-61
2022/04/12 09:58:54;;;;;;;6.28;2.03;;;18.80;83.30;;;;;;5024870;28;20033;-61
2022/04/12 10:01:20;;;;;;;;;;;18.80;83.80;;;;;;5023622;28;20462;-61
2022/04/12 10:03:59;;;;;;;3.88;2.03;;;18.90;81.80;;;;;;5026267;28;19971;-61
2022/04/12 10:06:27;;;;;;;5.25;2.63;;;18.90;82.70;;;;;;5022701;28;20040;-61
2022/04/12 10:08:55;;;;;;;4.13;2.75;;;19.00;81.50;;;;;;5024589;28;20060;-61
2022/04/12 10:11:23;;;;;;;7.53;2.38;;;18.90;82.50;;;;;;5024524;28;20604;-61
2022/04/12 10:13:50;;;;;;;6.57;2.40;;;19.00;82.90;;;;;;5024351;28;20215;-61
2022/04/12 10:16:18;;;;;;;8.23;2.58;;;19.10;81.00;;;;;;5024955;28;20040;-61
2022/04/12 10:18:44;;;;;;;6.10;2.30;;;19.10;83.50;;;;;;5024032;28;20409;-62
2022/04/12 10:21:11;;;;;;;5.47;2.58;;;19.30;81.90;;;;;;5024122;28;20044;-61
2022/04/12 10:23:39;;;;;;;4.47;2.17;;;19.40;82.30;;;;;;5024009;28;20026;-61
2022/04/12 10:26:06;;;;;;;5.18;2.30;;;19.30;83.00;;;;;;5024823;28;20040;-61
2022/04/12 10:28:32;;;;;;;6.95;2.05;;;19.40;81.30;;;;;;5024966;28;20038;-61
2022/04/12 10:31:04;;;;;;;7.20;2.67;;;19.40;81.10;;;;;;5024634;28;20684;-61
2022/04/12 10:33:30;;;;;;;6.07;2.15;;;19.50;81.00;;;;;;5023892;28;20390;-61
2022/04/12 10:35:57;;;;;;;9.15;1.60;;;19.50;80.80;;;;;;5025029;28;20036;-61
2022/04/12 10:38:25;;;;;;;7.38;2.35;;;19.40;82.10;;;;;;5024796;28;20048;-61
2022/04/12 10:40:55;;;;;;;5.55;2.83;;;19.40;79.90;;;;;;5023854;28;20152;-61
2022/04/12 10:43:33;;;;;;;3.90;1.95;;;19.30;81.10;;;;;;5020411;28;20049;-61
2022/04/12 10:46:00;;;;;;;4.30;1.90;;;19.30;81.10;;;;;;5024359;28;20033;-60
2022/04/12 10:48:28;;;;;;;6.30;1.80;;;19.30;83.90;;;;;;5024083;28;20042;-61
2022/04/12 10:50:56;;;;;;;12.48;2.38;;;19.30;82.80;;;;;;5022764;28;20766;-61
2022/04/12 10:53:36;;;;;;;7.95;3.00;;;19.20;82.70;;;;;;5024165;28;20060;-61
2022/04/12 10:56:16;;;;;;;8.57;2.60;;;19.10;82.80;;;;;;5022558;28;20041;-61
2022/04/12 10:58:43;;;;;;;6.83;2.83;;;19.00;82.90;;;;;;5024060;28;20037;-61
2022/04/12 11:01:27;;;;;;;6.68;2.70;;;19.00;82.80;;;;;;5024814;28;20457;-60
2022/04/12 11:03:54;;;;;;;4.95;2.45;;;19.00;84.10;;;;;;5025717;28;20056;-62
2022/04/12 11:06:27;;;;;;;6.10;2.38;;;19.00;84.60;;;;;;5025518;28;20091;-61
2022/04/12 11:09:06;;;;;;;6.82;2.25;;;19.10;85.00;;;;;;5025073;28;20402;-60
2022/04/12 11:11:41;;;;;;;6.38;2.45;;;19.30;84.20;;;;;;5025102;28;20038;-61
2022/04/12 11:14:26;;;;;;;5.85;2.50;;;19.40;83.60;;;;;;5026308;28;20108;-62
2022/04/12 11:17:00;;;;;;;5.13;2.35;;;19.50;83.00;;;;;;5024735;28;20279;-61
2022/04/12 11:19:27;;;;;;;4.80;2.20;;;19.60;84.00;;;;;;5026189;28;20160;-60
2022/04/12 11:21:57;;;;;;;7.97;2.05;;;19.70;83.60;;;;;;5021295;28;20115;-61
2022/04/12 11:24:24;;;;;;;5.32;2.05;;;19.80;81.90;;;;;;5026482;28;20042;-61
2022/04/12 11:27:06;;;;;;;6.57;2.38;;;20.00;82.80;;;;;;5026595;28;20051;-61
2022/04/12 11:29:32;;;;;;;9.18;2.28;;;20.20;81.30;;;;;;5025148;28;20508;-60
2022/04/12 11:31:58;;;;;;;7.65;2.50;;;20.30;83.10;;;;;;5025675;28;20025;-61
2022/04/12 11:34:27;;;;;;;3.20;1.83;;;20.30;81.20;;;;;;5025218;28;20044;-61
2022/04/12 11:37:07;;;;;;;5.97;2.55;;;20.20;81.50;;;;;;5023524;28;20037;-61
2022/04/12 11:39:36;;;;;;;8.60;2.92;;;20.30;81.20;;;;;;5026645;28;20052;-62
2022/04/12 11:42:14;;;;;;;8.27;2.40;;;20.30;80.70;;;;;;5027209;28;20116;-61
2022/04/12 11:44:40;;;;;;;5.35;2.53;;;20.20;80.10;;;;;;5027730;28;20026;-60
2022/04/12 11:47:08;;;;;;;6.85;2.53;;;20.20;79.90;;;;;;5026783;28;20037;-61
2022/04/12 11:49:36;;;;;;;5.43;2.38;;;20.20;82.40;;;;;;5024479;28;20041;-63
2022/04/12 11:52:03;;;;;;;7.07;2.17;;;20.20;81.00;;;;;;5027338;28;20044;-60
2022/04/12 11:54:32;;;;;;;6.25;2.45;;;20.20;81.40;;;;;;5026990;28;20029;-64
2022/04/12 11:57:06;;;;;;;4.43;1.83;;;20.20;80.50;;;;;;5025731;28;20033;-61
2022/04/12 11:59:45;;;;;;;4.97;1.98;;;20.30;80.10;;;;;;5027413;28;20117;-62
2022/04/12 12:02:12;;;;;;;5.82;2.00;;;20.30;78.70;;;;;;5024043;28;20124;-61
2022/04/12 12:04:48;;;;;;;4.63;2.30;;;20.40;79.00;;;;;;5026643;28;20072;-61
2022/04/12 12:07:14;;;;;;;4.97;2.15;;;20.50;80.70;;;;;;5027389;28;20033;-61
2022/04/12 12:09:57;;;;;;;6.60;3.08;;;20.50;80.50;;;;;;5025659;28;20041;-62
2022/04/12 12:12:46;;;;;;;3.92;1.90;;;20.60;81.20;;;;;;5025795;28;20565;-61
2022/04/12 12:15:23;;;;;;;5.13;2.13;;;20.60;80.90;;;;;;5024009;28;20119;-61
2022/04/12 12:17:51;;;;;;;7.55;1.90;;;20.50;79.70;;;;;;5027321;28;20041;-61
2022/04/12 12:20:18;;;;;;;10.52;2.67;;;20.40;79.50;;;;;;5025610;28;20167;-60
2022/04/12 12:22:50;;;;;;;4.13;2.70;;;20.40;80.00;;;;;;5026903;28;20026;-60
2022/04/12 12:25:19;;;;;;;3.88;1.92;;;20.20;80.00;;;;;;5024988;28;20049;-61
2022/04/12 12:27:53;;;;;;;8.30;2.60;;;20.20;81.00;;;;;;5025401;28;20124;-61
2022/04/12 12:30:29;;;;;;;4.28;2.05;;;20.20;81.20;;;;;;5026019;28;20064;-61
2022/04/12 12:32:56;;;;;;;6.45;2.03;;;20.20;81.30;;;;;;5026665;28;20041;-62
2022/04/12 12:35:25;;;;;;;3.70;1.83;;;20.10;81.60;;;;;;5026532;28;20057;-62
2022/04/12 12:38:00;;;;;;;8.40;2.97;;;20.10;81.90;;;;;;5028738;28;20076;-61
2022/04/12 12:40:27;;;;;;;3.40;1.58;;;20.10;81.80;;;;;;5024484;28;20099;-61
2022/04/12 12:42:54;;;;;;;8.27;2.25;;;20.20;82.60;;;;;;5026627;28;20037;-60
2022/04/12 12:45:25;;;;;;;8.38;2.55;;;20.20;83.40;;;;;;5026820;28;20653;-62
2022/04/12 12:47:56;;;;;;;7.50;2.40;;;20.30;83.00;;;;;;5024709;28;20044;-61
2022/04/12 12:50:24;;;;;;;4.85;1.83;;;20.40;80.50;;;;;;5025499;28;20581;-62
2022/04/12 12:53:00;;;;;;;4.25;2.22;;;20.40;80.80;;;;;;5026109;28;20120;-61